Time;durP1;ratioP1;P1;durP2;ratioP2;P2;SDS_P1;SDS_P2;PMS_P1;PMS_P2;Temp;Humidity;BMP_temperature;BMP_pressure;BME280_temperature;BME280_humidity;BME280_pressure;Samples;Min_cycle;Max_cycle;Signal;HPM_P1;HPM_P2
2021/01/13 07:36:03;;;;;;;1.58;0.70;;;1.90;99.90;;;;;;5017396;23;20052;-72
2021/01/13 07:38:31;;;;;;;3.50;0.93;;;1.90;99.90;;;;;;4897015;29;20047;-73
2021/01/13 07:41:07;;;;;;;1.73;0.63;;;1.90;99.90;;;;;;4915600;29;20036;-73
2021/01/13 07:43:51;;;;;;;4.07;1.20;;;1.90;99.90;;;;;;4911056;29;20036;-72
2021/01/13 07:46:29;;;;;;;3.97;1.02;;;1.90;99.90;;;;;;4912406;29;20040;-73
2021/01/13 07:49:10;;;;;;;0.20;0.13;;;1.90;99.90;;;;;;4910236;29;20040;-71
2021/01/13 07:51:48;;;;;;;0.60;0.38;;;2.00;99.90;;;;;;4907815;29;20028;-73
2021/01/13 07:54:33;;;;;;;0.40;0.15;;;2.00;99.90;;;;;;4911189;29;20028;-73
2021/01/13 07:57:04;;;;;;;0.17;0.17;;;2.00;99.90;;;;;;4928540;29;20024;-73
2021/01/13 07:59:40;;;;;;;0.82;0.75;;;2.00;99.90;;;;;;4926296;29;20036;-73
2021/01/13 08:02:43;;;;;;;0.95;0.50;;;2.10;99.90;;;;;;4927026;29;20456;-72
2021/01/13 08:05:20;;;;;;;3.13;0.90;;;2.10;99.90;;;;;;4927765;29;20036;-74
2021/01/13 08:08:00;;;;;;;0.85;0.68;;;2.20;99.90;;;;;;4927394;29;20039;-72
2021/01/13 08:10:29;;;;;;;0.95;0.32;;;2.30;99.90;;;;;;4928104;29;20628;-73
2021/01/13 08:13:48;;;;;;;2.10;0.43;;;2.30;99.90;;;;;;4927747;29;20070;-71
2021/01/13 08:16:46;;;;;;;14.23;1.17;;;2.50;99.90;;;;;;4904193;29;20044;-73
2021/01/13 08:19:40;;;;;;;1.48;0.63;;;2.50;99.90;;;;;;4910292;29;20028;-73
2021/01/13 08:22:15;;;;;;;4.38;0.73;;;2.50;99.90;;;;;;4927439;29;20083;-72
2021/01/13 08:24:43;;;;;;;9.40;1.02;;;2.50;99.90;;;;;;4926771;29;20028;-73
2021/01/13 08:27:10;;;;;;;0.52;0.32;;;2.50;99.90;;;;;;4927634;29;20024;-74
2021/01/13 08:29:37;;;;;;;3.75;0.90;;;2.60;99.90;;;;;;4927372;29;20046;-72
2021/01/13 08:32:11;;;;;;;3.17;0.60;;;2.60;99.90;;;;;;4926614;29;20063;-73
2021/01/13 08:34:46;;;;;;;0.20;0.20;;;2.60;99.90;;;;;;4909588;29;20266;-72
2021/01/13 08:37:13;;;;;;;0.20;0.10;;;2.60;99.90;;;;;;4926953;29;20052;-72
2021/01/13 08:39:42;;;;;;;1.17;0.75;;;2.60;99.90;;;;;;4927039;29;20067;-70
2021/01/13 08:42:18;;;;;;;1.40;0.52;;;2.50;99.90;;;;;;4926390;29;20035;-71
2021/01/13 08:44:44;;;;;;;1.75;0.57;;;2.40;99.90;;;;;;4927030;29;20036;-73
2021/01/13 08:47:09;;;;;;;1.17;0.52;;;2.40;99.90;;;;;;4927156;29;20040;-71
2021/01/13 08:49:35;;;;;;;6.18;1.05;;;2.40;99.90;;;;;;4927180;29;20044;-71
2021/01/13 08:52:21;;;;;;;1.05;0.45;;;2.40;99.90;;;;;;4915385;29;20024;-72
2021/01/13 08:54:56;;;;;;;7.97;1.15;;;2.40;99.90;;;;;;4933330;29;20032;-71
2021/01/13 08:57:26;;;;;;;0.88;0.63;;;2.50;99.90;;;;;;4916356;29;20469;-73
2021/01/13 08:59:52;;;;;;;3.67;0.85;;;2.70;99.90;;;;;;4933491;29;20457;-71
2021/01/13 09:02:19;;;;;;;1.58;0.80;;;2.90;99.90;;;;;;4933378;29;20043;-71
2021/01/13 09:04:53;;;;;;;3.30;0.95;;;3.10;99.90;;;;;;4933407;29;20052;-69
2021/01/13 09:07:24;;;;;;;1.98;1.15;;;3.30;99.90;;;;;;4933080;29;20070;-71
2021/01/13 09:10:08;;;;;;;1.95;0.80;;;3.40;99.90;;;;;;4931742;29;20036;-70
2021/01/13 09:12:45;;;;;;;2.00;0.82;;;3.60;99.90;;;;;;4933348;29;20060;-72
2021/01/13 09:15:18;;;;;;;1.05;0.93;;;3.70;99.90;;;;;;4932886;29;20127;-72
2021/01/13 09:17:51;;;;;;;1.52;0.90;;;3.80;99.90;;;;;;4931702;29;20039;-75
2021/01/13 09:20:21;;;;;;;1.45;0.55;;;3.90;99.90;;;;;;4915772;29;20029;-74
2021/01/13 09:22:48;;;;;;;0.68;0.20;;;4.10;99.90;;;;;;4916288;29;20024;-71
2021/01/13 09:25:23;;;;;;;0.43;0.22;;;4.20;99.90;;;;;;4915375;29;20040;-69
2021/01/13 09:27:57;;;;;;;7.78;0.52;;;4.50;99.90;;;;;;4933250;29;20043;-70
2021/01/13 09:30:33;;;;;;;2.42;0.73;;;4.60;99.90;;;;;;4933513;29;20047;-69
2021/01/13 09:33:02;;;;;;;0.65;0.50;;;4.80;99.90;;;;;;4916003;29;20043;-71
2021/01/13 09:35:30;;;;;;;0.30;0.30;;;5.00;99.90;;;;;;4933202;29;20032;-70
2021/01/13 09:38:10;;;;;;;2.15;0.82;;;5.10;99.90;;;;;;4932560;29;20080;-70
2021/01/13 09:41:02;;;;;;;3.80;1.27;;;5.20;99.90;;;;;;4899928;29;20123;-71
2021/01/13 09:43:44;;;;;;;4.75;0.98;;;5.30;99.90;;;;;;4914460;29;20029;-73
2021/01/13 09:46:21;;;;;;;2.33;1.48;;;5.60;99.90;;;;;;4913971;29;20056;-71
2021/01/13 09:48:59;;;;;;;2.92;0.98;;;5.50;99.90;;;;;;4912566;29;20064;-70
2021/01/13 09:51:26;;;;;;;1.35;0.77;;;5.20;99.90;;;;;;4896491;29;20043;-71
2021/01/13 09:53:54;;;;;;;1.65;0.82;;;5.10;99.90;;;;;;4913731;29;20028;-69
2021/01/13 09:56:20;;;;;;;6.32;1.08;;;5.20;99.90;;;;;;4913755;29;20028;-70
2021/01/13 09:58:48;;;;;;;6.97;1.00;;;5.40;99.90;;;;;;4931351;29;20039;-70
2021/01/13 10:01:16;;;;;;;3.78;0.90;;;5.70;99.90;;;;;;4931376;29;20052;-72
2021/01/13 10:03:45;;;;;;;2.17;0.77;;;6.00;99.90;;;;;;4928788;29;20027;-72
2021/01/13 10:06:26;;;;;;;2.30;0.90;;;6.20;99.90;;;;;;4928169;29;20044;-71
2021/01/13 10:08:53;;;;;;;2.38;0.80;;;6.10;99.90;;;;;;4929315;29;20047;-70
2021/01/13 10:11:20;;;;;;;2.92;0.55;;;6.00;99.90;;;;;;4929124;29;20032;-72
2021/01/13 10:13:55;;;;;;;1.23;0.70;;;5.90;99.90;;;;;;4911423;29;20063;-71
2021/01/13 10:16:21;;;;;;;2.45;0.70;;;6.10;99.90;;;;;;4929024;29;20040;-72
2021/01/13 10:18:52;;;;;;;1.40;0.50;;;6.30;99.90;;;;;;4928531;29;20035;-71
2021/01/13 10:21:18;;;;;;;5.93;0.45;;;5.90;99.90;;;;;;4912058;29;20036;-71
2021/01/13 10:23:48;;;;;;;1.48;0.82;;;5.80;99.90;;;;;;4928738;29;20033;-69
2021/01/13 10:26:14;;;;;;;5.20;1.02;;;5.40;99.90;;;;;;4928514;29;20519;-70
2021/01/13 10:28:40;;;;;;;1.65;0.70;;;5.40;99.90;;;;;;4928070;29;20096;-69
2021/01/13 10:31:07;;;;;;;2.97;0.93;;;5.60;99.90;;;;;;4928875;29;20453;-70
2021/01/13 10:33:48;;;;;;;3.63;1.10;;;6.10;99.90;;;;;;4928948;29;20080;-69
2021/01/13 10:36:37;;;;;;;7.50;1.10;;;6.30;99.90;;;;;;4911437;29;20043;-70
2021/01/13 10:39:07;;;;;;;3.47;0.77;;;6.10;99.90;;;;;;4928704;29;20417;-70
2021/01/13 10:41:39;;;;;;;2.95;0.73;;;5.90;99.90;;;;;;4928683;29;20044;-70
2021/01/13 10:44:13;;;;;;;1.00;0.50;;;5.90;99.90;;;;;;4929256;29;20032;-69
2021/01/13 10:46:41;;;;;;;3.33;1.27;;;5.90;99.90;;;;;;4928330;29;20092;-73
2021/01/13 10:49:18;;;;;;;3.47;0.93;;;6.00;99.90;;;;;;4928654;29;20116;-71
2021/01/13 10:51:47;;;;;;;2.20;1.05;;;6.20;99.90;;;;;;4928352;29;20053;-70
2021/01/13 10:54:16;;;;;;;0.10;0.10;;;6.20;99.90;;;;;;4928126;29;20084;-71
2021/01/13 10:56:44;;;;;;;4.57;0.77;;;6.10;99.90;;;;;;4928273;29;20056;-72
2021/01/13 10:59:16;;;;;;;2.90;1.27;;;6.40;99.90;;;;;;4928894;29;20035;-70
2021/01/13 11:01:47;;;;;;;8.68;1.25;;;6.30;99.90;;;;;;4928291;29;20028;-71
2021/01/13 11:04:36;;;;;;;6.70;0.88;;;6.00;99.90;;;;;;4928191;29;20036;-69
2021/01/13 11:07:08;;;;;;;2.30;0.73;;;5.70;99.90;;;;;;4928730;29;20111;-70
2021/01/13 11:09:35;;;;;;;1.38;0.50;;;5.50;99.90;;;;;;4928470;29;20095;-71
2021/01/13 11:12:01;;;;;;;3.80;1.67;;;5.40;99.90;;;;;;4928492;29;20028;-72
2021/01/13 11:14:32;;;;;;;6.30;1.60;;;5.20;99.90;;;;;;4927414;29;20062;-71
2021/01/13 11:17:02;;;;;;;4.03;0.98;;;5.20;99.90;;;;;;4928382;29;20021;-72
2021/01/13 11:19:28;;;;;;;1.35;0.80;;;5.10;99.90;;;;;;4928713;29;20090;-72
2021/01/13 11:21:55;;;;;;;2.33;0.75;;;5.40;99.90;;;;;;4928586;29;20622;-70
2021/01/13 11:24:33;;;;;;;1.38;0.10;;;5.80;99.90;;;;;;4928235;29;20020;-69
2021/01/13 11:27:03;;;;;;;1.85;0.80;;;6.30;99.90;;;;;;4928327;29;20035;-71
2021/01/13 11:29:31;;;;;;;3.45;0.55;;;6.80;99.90;;;;;;4927581;29;20040;-70
2021/01/13 11:31:59;;;;;;;2.75;0.68;;;7.10;99.90;;;;;;4928121;29;20126;-72
2021/01/13 11:34:25;;;;;;;8.95;1.20;;;7.30;99.90;;;;;;4928253;29;20079;-72
2021/01/13 11:37:18;;;;;;;0.60;0.15;;;7.50;99.90;;;;;;4926319;29;20111;-70
2021/01/13 11:39:48;;;;;;;2.13;0.57;;;7.60;99.90;;;;;;4911438;29;20024;-71
2021/01/13 11:42:43;;;;;;;1.48;0.70;;;7.70;99.90;;;;;;4928161;29;20020;-71
2021/01/13 11:45:15;;;;;;;3.38;0.98;;;8.10;99.90;;;;;;4876456;29;20553;-71
2021/01/13 11:47:45;;;;;;;10.43;0.80;;;8.30;99.90;;;;;;4928194;29;20036;-71
2021/01/13 11:50:19;;;;;;;4.22;0.52;;;8.30;99.90;;;;;;4927760;29;20416;-72
2021/01/13 11:52:46;;;;;;;3.40;0.82;;;7.80;99.90;;;;;;4928252;29;20024;-73
2021/01/13 11:55:12;;;;;;;4.35;0.60;;;7.50;99.90;;;;;;4928009;29;20021;-71
2021/01/13 11:57:38;;;;;;;2.72;0.65;;;7.40;99.90;;;;;;4910496;29;20055;-75
2021/01/13 12:00:26;;;;;;;1.02;0.85;;;7.00;99.90;;;;;;4910521;29;20028;-71
2021/01/13 12:02:53;;;;;;;2.80;0.75;;;7.00;99.90;;;;;;4927373;29;20027;-73
2021/01/13 12:05:22;;;;;;;6.85;0.80;;;7.50;99.90;;;;;;4927775;29;20028;-71
2021/01/13 12:08:09;;;;;;;0.98;0.55;;;7.50;99.90;;;;;;4927573;29;20048;-72
2021/01/13 12:10:37;;;;;;;3.15;1.00;;;7.20;99.90;;;;;;4927405;29;20036;-69
2021/01/13 12:13:13;;;;;;;4.22;0.50;;;6.90;99.90;;;;;;4910191;29;20099;-72
2021/01/13 12:15:47;;;;;;;3.75;0.95;;;7.00;99.90;;;;;;4927100;29;20141;-72
2021/01/13 12:18:22;;;;;;;1.85;0.77;;;7.00;99.90;;;;;;4927405;29;20062;-71
2021/01/13 12:20:49;;;;;;;1.02;0.75;;;7.30;99.90;;;;;;4927035;29;20179;-71
2021/01/13 12:23:17;;;;;;;1.17;0.52;;;7.30;99.90;;;;;;4927371;29;20039;-73
2021/01/13 12:25:42;;;;;;;4.13;1.45;;;7.40;99.90;;;;;;4926627;29;20032;-72
2021/01/13 12:28:08;;;;;;;1.55;0.63;;;7.60;99.90;;;;;;4909893;29;20130;-73
2021/01/13 12:30:34;;;;;;;4.32;0.82;;;7.50;99.90;;;;;;4927054;29;20122;-74
2021/01/13 12:33:05;;;;;;;1.83;0.98;;;7.00;99.90;;;;;;4926898;29;20028;-72
2021/01/13 12:35:31;;;;;;;3.78;0.98;;;6.80;99.90;;;;;;4915424;29;20068;-73
2021/01/13 12:37:57;;;;;;;0.93;0.50;;;6.50;99.90;;;;;;4907359;29;20493;-73
2021/01/13 12:40:30;;;;;;;1.30;0.55;;;6.30;99.90;;;;;;4907783;29;20033;-72
2021/01/13 12:42:56;;;;;;;0.60;0.38;;;6.10;99.90;;;;;;4919903;29;20042;-71
2021/01/13 12:45:22;;;;;;;0.90;0.40;;;6.00;99.90;;;;;;4925840;29;20063;-70
2021/01/13 12:47:55;;;;;;;0.55;0.32;;;5.90;99.90;;;;;;4925828;29;20052;-70
2021/01/13 12:50:21;;;;;;;0.60;0.43;;;5.90;99.90;;;;;;4925264;29;20039;-71
2021/01/13 12:52:50;;;;;;;8.38;1.20;;;5.90;99.90;;;;;;4925335;29;20032;-71
2021/01/13 12:55:15;;;;;;;0.20;0.20;;;5.90;99.90;;;;;;4926780;29;20088;-72
2021/01/13 12:57:41;;;;;;;0.93;0.40;;;6.00;99.90;;;;;;4926276;29;20040;-72
2021/01/13 13:00:07;;;;;;;2.97;0.73;;;6.10;99.90;;;;;;4907620;29;20096;-73
2021/01/13 13:02:32;;;;;;;1.83;0.65;;;6.00;99.90;;;;;;4925937;29;20433;-71
2021/01/13 13:04:58;;;;;;;5.70;1.08;;;5.90;99.90;;;;;;4925934;29;20036;-71
2021/01/13 13:07:23;;;;;;;1.98;0.70;;;5.70;99.90;;;;;;4926181;29;20039;-72
2021/01/13 13:09:49;;;;;;;9.98;1.00;;;5.50;99.90;;;;;;4909466;29;20036;-72
2021/01/13 13:12:16;;;;;;;1.75;0.63;;;5.30;99.90;;;;;;4926428;29;20032;-71
2021/01/13 13:14:41;;;;;;;5.78;0.88;;;5.30;99.90;;;;;;4925915;29;20032;-73
2021/01/13 13:17:08;;;;;;;1.38;0.50;;;5.70;99.90;;;;;;4925468;29;20372;-69
2021/01/13 13:19:35;;;;;;;4.32;1.02;;;6.50;99.90;;;;;;4925457;29;20025;-72
2021/01/13 13:22:00;;;;;;;8.80;1.40;;;7.10;99.90;;;;;;4927874;29;20072;-70
2021/01/13 13:24:27;;;;;;;0.75;0.35;;;7.10;99.90;;;;;;4926798;29;20036;-69
2021/01/13 13:26:56;;;;;;;1.08;0.47;;;6.90;99.90;;;;;;4926102;29;20020;-71
2021/01/13 13:29:21;;;;;;;1.25;0.65;;;6.70;99.90;;;;;;4926259;29;20036;-73
2021/01/13 13:31:50;;;;;;;6.53;1.00;;;6.50;99.90;;;;;;4926897;29;20449;-70
2021/01/13 13:34:16;;;;;;;3.08;0.80;;;6.30;99.90;;;;;;4925806;29;20035;-70
2021/01/13 13:36:42;;;;;;;18.05;0.65;;;6.20;99.90;;;;;;4925960;29;20044;-71
2021/01/13 13:39:07;;;;;;;0.22;0.20;;;6.00;99.90;;;;;;4929707;29;20028;-71
2021/01/13 13:41:33;;;;;;;0.40;0.20;;;5.90;99.90;;;;;;4929944;29;20044;-73
2021/01/13 13:43:59;;;;;;;4.05;1.33;;;5.80;99.90;;;;;;4930791;29;20108;-72
2021/01/13 13:46:25;;;;;;;0.63;0.43;;;5.80;99.90;;;;;;4930454;29;20043;-70
2021/01/13 13:48:50;;;;;;;3.20;0.75;;;5.80;99.90;;;;;;4929959;29;20112;-71
2021/01/13 13:51:16;;;;;;;1.70;0.70;;;5.70;99.90;;;;;;4929806;29;20036;-71
2021/01/13 13:53:42;;;;;;;2.30;0.45;;;5.90;99.90;;;;;;4929308;29;20119;-70
2021/01/13 13:56:07;;;;;;;6.85;1.10;;;5.70;99.90;;;;;;4929690;29;20028;-72
2021/01/13 13:58:34;;;;;;;6.38;1.95;;;5.60;99.90;;;;;;4912842;29;20024;-71
2021/01/13 14:01:00;;;;;;;7.57;1.15;;;5.60;99.90;;;;;;4912522;29;20080;-71
2021/01/13 14:03:26;;;;;;;1.92;0.70;;;5.50;99.90;;;;;;4929724;29;20040;-71
2021/01/13 14:05:53;;;;;;;9.55;2.03;;;5.50;99.90;;;;;;4929767;29;20087;-73
2021/01/13 14:08:19;;;;;;;4.78;1.00;;;5.50;99.90;;;;;;4928735;29;20575;-70
2021/01/13 14:10:45;;;;;;;6.95;1.13;;;5.50;99.90;;;;;;4929833;29;20024;-66
2021/01/13 14:13:12;;;;;;;4.70;0.75;;;5.40;99.90;;;;;;4929357;29;20047;-72
2021/01/13 14:15:37;;;;;;;11.35;1.45;;;5.40;99.90;;;;;;4928508;29;20036;-71
2021/01/13 14:18:06;;;;;;;1.85;0.40;;;5.30;99.90;;;;;;4930248;29;20039;-72
2021/01/13 14:20:33;;;;;;;0.90;0.68;;;5.20;99.90;;;;;;4929979;29;20107;-71
2021/01/13 14:22:58;;;;;;;1.27;0.63;;;5.10;99.90;;;;;;4929598;29;20028;-72
2021/01/13 14:25:24;;;;;;;0.20;0.10;;;4.90;99.90;;;;;;4912554;29;20032;-70
2021/01/13 14:27:50;;;;;;;2.03;0.25;;;4.30;99.90;;;;;;4912359;29;20044;-73
2021/01/13 14:30:16;;;;;;;2.28;0.25;;;3.80;99.90;;;;;;4929365;29;20028;-71
2021/01/13 14:32:47;;;;;;;0.55;0.22;;;3.30;99.90;;;;;;4929857;29;20024;-73
2021/01/13 14:35:13;;;;;;;0.13;0.03;;;3.00;99.90;;;;;;4929881;29;20066;-72
2021/01/13 14:37:38;;;;;;;0.22;0.20;;;2.90;99.90;;;;;;4929178;29;20058;-71
2021/01/13 14:40:06;;;;;;;0.75;0.73;;;2.80;99.90;;;;;;4930037;29;20028;-72
2021/01/13 14:42:32;;;;;;;1.67;1.08;;;2.90;99.90;;;;;;4929838;29;20032;-71
2021/01/13 14:44:58;;;;;;;2.55;0.47;;;2.90;99.90;;;;;;4929224;29;20091;-70
2021/01/13 14:47:24;;;;;;;6.22;0.38;;;3.00;99.90;;;;;;4929775;29;20027;-70
2021/01/13 14:49:50;;;;;;;2.20;0.80;;;3.10;99.90;;;;;;4928803;29;20456;-69
2021/01/13 14:52:15;;;;;;;0.55;0.52;;;3.20;99.90;;;;;;4929227;29;20028;-68
2021/01/13 14:54:46;;;;;;;7.55;1.05;;;3.30;99.90;;;;;;4929459;29;20079;-70
2021/01/13 14:57:11;;;;;;;2.08;0.60;;;3.40;99.90;;;;;;4929192;29;20048;-72
2021/01/13 14:59:37;;;;;;;3.85;1.20;;;3.50;99.90;;;;;;4929184;29;20088;-70
2021/01/13 15:02:03;;;;;;;1.95;0.43;;;3.60;99.90;;;;;;4929298;29;20032;-72
2021/01/13 15:04:29;;;;;;;3.72;0.70;;;3.60;99.90;;;;;;4929097;29;20038;-70
2021/01/13 15:07:00;;;;;;;2.65;0.65;;;3.70;99.90;;;;;;4929236;29;20076;-73
2021/01/13 15:09:28;;;;;;;5.57;0.82;;;3.80;99.90;;;;;;4912180;29;20052;-69
2021/01/13 15:11:59;;;;;;;2.92;0.73;;;3.80;99.90;;;;;;4928632;29;20493;-71
2021/01/13 15:14:25;;;;;;;4.50;0.40;;;3.90;99.90;;;;;;4928820;29;20071;-69
2021/01/13 15:16:52;;;;;;;1.25;0.77;;;3.90;99.90;;;;;;4911797;29;20036;-69
2021/01/13 15:19:21;;;;;;;1.35;0.70;;;3.90;99.90;;;;;;4928454;29;20071;-68
2021/01/13 15:21:48;;;;;;;9.95;1.20;;;3.90;99.90;;;;;;4928610;29;20571;-69
2021/01/13 15:24:16;;;;;;;1.33;0.70;;;3.90;99.90;;;;;;4928556;29;20028;-68
2021/01/13 15:26:42;;;;;;;3.42;0.90;;;3.90;99.90;;;;;;4928438;29;20028;-70
2021/01/13 15:29:07;;;;;;;0.65;0.22;;;3.90;99.90;;;;;;4928557;29;20086;-71
2021/01/13 15:31:33;;;;;;;0.28;0.28;;;3.90;99.90;;;;;;4928300;29;20025;-70
2021/01/13 15:33:58;;;;;;;2.50;0.82;;;3.90;99.90;;;;;;4928565;29;20032;-68
2021/01/13 15:36:29;;;;;;;3.10;0.80;;;3.90;99.90;;;;;;4927869;29;20060;-70
2021/01/13 15:38:55;;;;;;;2.22;0.80;;;3.80;99.90;;;;;;4928101;29;20028;-69
2021/01/13 15:41:21;;;;;;;5.18;1.10;;;3.80;99.90;;;;;;4928304;29;20485;-68
2021/01/13 15:43:47;;;;;;;5.57;1.50;;;3.80;99.90;;;;;;4928304;29;20153;-69
2021/01/13 15:46:18;;;;;;;2.10;0.85;;;3.80;99.90;;;;;;4928026;29;20052;-70
2021/01/13 15:48:44;;;;;;;6.18;0.70;;;3.80;99.90;;;;;;4928318;29;20044;-71
2021/01/13 15:51:10;;;;;;;10.43;0.93;;;3.80;99.90;;;;;;4928167;29;20118;-72
2021/01/13 15:53:42;;;;;;;4.93;0.88;;;3.70;99.90;;;;;;4927963;29;20032;-72
2021/01/13 15:56:08;;;;;;;2.28;1.00;;;3.70;99.90;;;;;;4928240;29;20028;-71
2021/01/13 15:58:56;;;;;;;5.43;0.73;;;3.60;99.90;;;;;;4928324;29;20456;-69
2021/01/13 16:01:22;;;;;;;0.95;0.60;;;3.70;99.90;;;;;;4927284;29;20079;-70
2021/01/13 16:03:48;;;;;;;3.72;1.30;;;3.70;99.90;;;;;;4928238;29;20024;-70
2021/01/13 16:06:14;;;;;;;4.45;1.38;;;3.70;99.90;;;;;;4927629;29;20080;-71
2021/01/13 16:08:41;;;;;;;26.45;2.58;;;3.70;99.90;;;;;;4927693;29;20043;-71
2021/01/13 16:11:07;;;;;;;6.75;1.63;;;3.70;99.90;;;;;;4928016;29;20036;-71
2021/01/13 16:13:34;;;;;;;12.48;1.50;;;3.70;99.90;;;;;;4927819;29;20059;-71
2021/01/13 16:16:01;;;;;;;4.50;0.93;;;3.70;99.90;;;;;;4928019;29;20032;-71
2021/01/13 16:18:27;;;;;;;4.05;1.60;;;3.70;99.90;;;;;;4911069;29;20043;-72
2021/01/13 16:20:52;;;;;;;3.55;0.98;;;3.80;99.90;;;;;;4926650;29;20020;-71
2021/01/13 16:23:21;;;;;;;1.58;0.93;;;3.80;99.90;;;;;;4910760;29;20036;-69
2021/01/13 16:25:46;;;;;;;2.42;0.98;;;3.70;99.90;;;;;;4928086;29;20032;-69
2021/01/13 16:28:12;;;;;;;2.13;0.88;;;3.70;99.90;;;;;;4927529;29;20051;-70
2021/01/13 16:30:37;;;;;;;6.60;0.75;;;3.60;99.90;;;;;;4927245;29;20067;-72
2021/01/13 16:33:04;;;;;;;3.50;1.08;;;3.60;99.90;;;;;;4911070;29;20105;-72
2021/01/13 16:35:31;;;;;;;4.80;1.08;;;3.50;99.90;;;;;;4910485;29;20032;-69
2021/01/13 16:38:01;;;;;;;5.03;0.80;;;3.40;99.90;;;;;;4928000;29;20118;-70
2021/01/13 16:40:28;;;;;;;5.95;0.93;;;3.40;99.90;;;;;;4910777;29;20032;-71
2021/01/13 16:42:55;;;;;;;5.82;0.90;;;3.30;99.90;;;;;;4910728;29;20032;-70
2021/01/13 16:45:21;;;;;;;3.33;1.63;;;3.20;99.90;;;;;;4928073;29;20036;-70
2021/01/13 16:47:47;;;;;;;4.03;0.80;;;3.10;99.90;;;;;;4927559;29;20091;-70
2021/01/13 16:50:13;;;;;;;4.07;1.13;;;3.10;99.90;;;;;;4910527;29;20028;-70
2021/01/13 16:52:39;;;;;;;2.50;0.98;;;3.00;99.90;;;;;;4927806;29;20024;-72
2021/01/13 16:55:08;;;;;;;3.78;0.65;;;2.90;99.90;;;;;;4927349;29;20091;-73
2021/01/13 16:57:35;;;;;;;6.47;1.50;;;2.90;99.90;;;;;;4911455;29;20028;-72
2021/01/13 17:00:07;;;;;;;1.35;0.40;;;2.80;99.90;;;;;;4927138;29;20032;-70
2021/01/13 17:02:43;;;;;;;13.15;0.85;;;2.80;99.90;;;;;;4910490;29;20079;-72
2021/01/13 17:05:14;;;;;;;0.35;0.32;;;2.70;99.90;;;;;;4927817;29;20033;-70
2021/01/13 17:07:41;;;;;;;3.67;0.57;;;2.70;99.90;;;;;;4927930;29;20032;-70
2021/01/13 17:10:09;;;;;;;2.28;0.38;;;2.60;99.90;;;;;;4927874;29;20032;-71
2021/01/13 17:12:35;;;;;;;1.08;0.40;;;2.60;99.90;;;;;;4930398;29;20040;-71
2021/01/13 17:15:09;;;;;;;4.57;0.70;;;2.50;99.90;;;;;;4931780;29;20029;-71
2021/01/13 17:17:35;;;;;;;;;;;2.50;99.90;;;;;;4932039;29;20034;-71
2021/01/13 17:20:05;;;;;;;2.72;0.60;;;2.50;99.90;;;;;;4914973;29;20355;-72
2021/01/13 17:22:35;;;;;;;0.35;0.28;;;2.40;99.90;;;;;;4931761;29;20461;-71
2021/01/13 17:25:06;;;;;;;0.32;0.32;;;2.30;99.90;;;;;;4931401;29;20037;-72
2021/01/13 17:27:33;;;;;;;0.20;0.20;;;2.30;99.90;;;;;;4914795;29;20067;-71
2021/01/13 17:29:59;;;;;;;1.98;0.35;;;2.20;99.90;;;;;;4931654;29;20035;-72
2021/01/13 17:32:25;;;;;;;1.98;0.25;;;2.10;99.90;;;;;;4931481;29;20389;-73
2021/01/13 17:34:51;;;;;;;6.60;0.82;;;2.10;99.90;;;;;;4931234;29;20056;-71
2021/01/13 17:37:17;;;;;;;10.65;0.88;;;2.00;99.90;;;;;;4913585;29;20055;-72
2021/01/13 17:39:43;;;;;;;7.07;0.63;;;2.00;99.90;;;;;;4914086;29;20032;-71
2021/01/13 17:42:13;;;;;;;1.83;0.70;;;1.90;99.90;;;;;;4931366;29;20032;-70
2021/01/13 17:44:39;;;;;;;1.08;0.80;;;1.90;99.90;;;;;;4931187;29;20024;-71
2021/01/13 17:47:04;;;;;;;4.28;0.43;;;1.90;99.90;;;;;;4931106;29;20035;-73
2021/01/13 17:49:30;;;;;;;2.00;0.82;;;1.90;99.90;;;;;;4931276;29;20072;-71
2021/01/13 17:51:57;;;;;;;0.95;0.63;;;1.90;99.90;;;;;;4930984;29;20034;-70
2021/01/13 17:54:27;;;;;;;17.20;0.68;;;1.90;99.90;;;;;;4930821;29;20064;-74
2021/01/13 17:56:52;;;;;;;0.45;0.35;;;1.90;99.90;;;;;;4914163;29;20059;-70
2021/01/13 17:59:18;;;;;;;2.72;1.10;;;1.90;99.90;;;;;;4930764;29;20039;-71
2021/01/13 18:01:47;;;;;;;11.38;1.95;;;1.90;99.90;;;;;;4930463;29;20032;-72
2021/01/13 18:04:14;;;;;;;2.85;0.60;;;2.00;99.90;;;;;;4931087;29;20047;-72
2021/01/13 18:06:39;;;;;;;6.15;0.77;;;2.00;99.90;;;;;;4930231;29;20063;-71
2021/01/13 18:09:05;;;;;;;2.45;0.90;;;1.90;99.90;;;;;;4930840;29;20449;-72
2021/01/13 18:11:31;;;;;;;1.75;0.73;;;1.80;99.90;;;;;;4930865;29;20040;-73
2021/01/13 18:13:56;;;;;;;1.65;0.55;;;1.80;99.90;;;;;;4930816;29;20068;-73
2021/01/13 18:16:22;;;;;;;2.05;0.75;;;1.70;99.90;;;;;;4930694;29;20040;-71
2021/01/13 18:18:48;;;;;;;0.60;0.40;;;1.80;99.90;;;;;;4930491;29;20040;-72
2021/01/13 18:21:14;;;;;;;4.68;0.63;;;1.80;99.90;;;;;;4930488;29;20030;-72
2021/01/13 18:23:40;;;;;;;0.38;0.28;;;1.80;99.90;;;;;;4929889;29;20112;-72
2021/01/13 18:26:05;;;;;;;5.88;1.67;;;1.80;99.90;;;;;;4913121;29;20426;-71
2021/01/13 18:28:31;;;;;;;3.38;0.68;;;1.70;99.90;;;;;;4930228;29;20043;-74
2021/01/13 18:30:57;;;;;;;1.63;0.52;;;1.70;99.90;;;;;;4930997;29;20060;-71
2021/01/13 18:33:23;;;;;;;2.25;0.60;;;1.70;99.90;;;;;;4913477;29;20024;-73
2021/01/13 18:35:48;;;;;;;0.85;0.65;;;1.60;99.90;;;;;;4929810;29;20083;-73
2021/01/13 18:38:14;;;;;;;3.47;1.88;;;1.60;99.90;;;;;;4913178;29;20058;-74
2021/01/13 18:40:41;;;;;;;3.60;0.77;;;1.60;99.90;;;;;;4913085;29;20097;-72
2021/01/13 18:43:07;;;;;;;1.92;1.42;;;1.60;99.90;;;;;;4930225;29;20028;-73
2021/01/13 18:45:38;;;;;;;8.20;1.98;;;1.60;99.90;;;;;;4929896;29;20039;-72
2021/01/13 18:48:05;;;;;;;2.78;0.80;;;1.50;99.90;;;;;;4929560;29;20052;-72
2021/01/13 18:50:31;;;;;;;4.45;1.02;;;1.50;99.90;;;;;;4929692;29;20110;-73
2021/01/13 18:52:58;;;;;;;0.57;0.35;;;1.60;99.90;;;;;;4930404;29;20048;-72
2021/01/13 18:55:25;;;;;;;3.42;1.30;;;1.60;99.90;;;;;;4912632;29;20028;-70
2021/01/13 18:57:50;;;;;;;4.05;1.30;;;1.60;99.90;;;;;;4930042;29;20059;-71
2021/01/13 19:00:17;;;;;;;1.48;0.90;;;1.60;99.90;;;;;;4929982;29;20032;-72
2021/01/13 19:02:43;;;;;;;1.75;0.90;;;1.60;99.90;;;;;;4929604;29;20028;-71
2021/01/13 19:05:10;;;;;;;2.92;0.75;;;1.60;99.90;;;;;;4929190;29;20489;-72
2021/01/13 19:07:36;;;;;;;1.13;0.57;;;1.60;99.90;;;;;;4911808;29;20039;-72
2021/01/13 19:10:04;;;;;;;1.08;0.57;;;1.60;99.90;;;;;;4929460;29;20438;-72
2021/01/13 19:12:29;;;;;;;2.83;0.80;;;1.60;99.90;;;;;;4929906;29;20055;-72
2021/01/13 19:14:55;;;;;;;1.10;0.57;;;1.60;99.90;;;;;;4910975;29;20742;-73
2021/01/13 19:17:22;;;;;;;1.08;0.57;;;1.60;99.90;;;;;;4927654;29;20039;-71
2021/01/13 19:19:48;;;;;;;4.13;0.20;;;1.60;99.90;;;;;;4911397;29;20477;-72
2021/01/13 19:22:13;;;;;;;2.90;0.63;;;1.60;99.90;;;;;;4928061;29;20430;-72
2021/01/13 19:24:39;;;;;;;0.70;0.30;;;1.70;99.90;;;;;;4928147;29;20028;-72
2021/01/13 19:27:06;;;;;;;1.38;0.82;;;1.70;99.90;;;;;;4928037;29;20035;-71
2021/01/13 19:29:37;;;;;;;2.78;0.20;;;1.70;99.90;;;;;;4910716;29;20036;-75
2021/01/13 19:32:08;;;;;;;2.67;0.65;;;1.70;99.90;;;;;;4927835;29;20040;-73
2021/01/13 19:34:35;;;;;;;5.53;0.73;;;1.70;99.90;;;;;;4910590;29;20047;-73
2021/01/13 19:37:01;;;;;;;1.38;0.70;;;1.70;99.90;;;;;;4926576;29;20051;-73
2021/01/13 19:39:26;;;;;;;2.25;1.17;;;1.70;99.90;;;;;;4910973;29;20032;-73
2021/01/13 19:41:52;;;;;;;2.95;1.05;;;1.70;99.90;;;;;;4910575;29;20538;-72
2021/01/13 19:44:18;;;;;;;0.90;0.57;;;1.80;99.90;;;;;;4927663;29;20044;-73
2021/01/13 19:46:44;;;;;;;2.60;0.90;;;1.80;99.90;;;;;;4910842;29;20039;-72
2021/01/13 19:49:12;;;;;;;3.08;1.55;;;1.80;99.90;;;;;;4927215;29;20046;-74
2021/01/13 19:51:38;;;;;;;3.38;0.88;;;1.80;99.90;;;;;;4910240;29;20047;-72
2021/01/13 19:54:04;;;;;;;2.50;0.85;;;1.80;99.90;;;;;;4910935;29;20036;-73
2021/01/13 19:56:35;;;;;;;1.30;0.68;;;1.80;99.90;;;;;;4927895;29;20055;-75
2021/01/13 19:59:01;;;;;;;2.60;0.85;;;1.70;99.90;;;;;;4910446;29;20035;-72
2021/01/13 20:01:27;;;;;;;7.70;0.90;;;1.70;99.90;;;;;;4910706;29;20040;-74
2021/01/13 20:03:53;;;;;;;2.45;0.90;;;1.70;99.90;;;;;;4927449;29;20028;-73
2021/01/13 20:06:18;;;;;;;1.55;0.30;;;1.70;99.90;;;;;;4927238;29;20056;-73
2021/01/13 20:08:44;;;;;;;1.45;0.68;;;1.60;99.90;;;;;;4927657;29;20036;-72
2021/01/13 20:11:10;;;;;;;1.60;0.68;;;1.60;99.90;;;;;;4910229;29;20120;-73
2021/01/13 20:13:35;;;;;;;7.15;1.55;;;1.70;99.90;;;;;;4927165;29;20024;-73
2021/01/13 20:16:02;;;;;;;10.73;2.97;;;1.70;99.90;;;;;;4927703;29;20091;-74
2021/01/13 20:18:29;;;;;;;1.38;0.93;;;1.80;99.90;;;;;;4910935;29;20044;-73
2021/01/13 20:20:55;;;;;;;8.52;0.80;;;1.60;99.90;;;;;;4927446;29;20059;-73
2021/01/13 20:23:21;;;;;;;5.38;0.65;;;1.60;99.90;;;;;;4927754;29;20031;-73
2021/01/13 20:25:47;;;;;;;1.42;0.43;;;1.60;99.90;;;;;;4927582;29;20028;-73
2021/01/13 20:28:12;;;;;;;5.47;1.88;;;1.60;99.90;;;;;;4927192;29;20040;-73
2021/01/13 20:30:38;;;;;;;8.77;0.98;;;1.60;99.90;;;;;;4927592;29;20035;-74
2021/01/13 20:33:04;;;;;;;1.33;0.50;;;1.60;99.90;;;;;;4927405;29;20130;-73
2021/01/13 20:35:31;;;;;;;1.30;0.68;;;1.50;99.90;;;;;;4927367;29;20092;-73
2021/01/13 20:37:56;;;;;;;1.75;1.05;;;1.50;99.90;;;;;;4927976;29;20058;-73
2021/01/13 20:40:25;;;;;;;0.40;0.40;;;1.50;99.90;;;;;;4928107;29;20111;-74
2021/01/13 20:42:58;;;;;;;0.68;0.57;;;1.50;99.90;;;;;;4928322;29;20036;-74